sensor_id;sensor_type;location;lat;lon;timestamp;noise_LAeq;noise_LA_min;noise_LA_max;noise_LA01;noise_LA95
37279;Laerm;7458;49.002;8.472;2023-07-29T00:02:08;53.47;37.70;72.76;;
37279;Laerm;7458;49.002;8.472;2023-07-29T00:04:34;43.46;37.52;53.00;;
37279;Laerm;7458;49.002;8.472;2023-07-29T00:07:00;49.53;36.91;69.38;;
37279;Laerm;7458;49.002;8.472;2023-07-29T00:09:25;43.73;37.12;54.89;;
37279;Laerm;7458;49.002;8.472;2023-07-29T00:11:51;51.68;37.32;72.12;;
37279;Laerm;7458;49.002;8.472;2023-07-29T00:14:17;43.51;37.32;51.22;;
37279;Laerm;7458;49.002;8.472;2023-07-29T00:16:43;48.11;37.70;64.20;;
37279;Laerm;7458;49.002;8.472;2023-07-29T00:19:08;43.63;36.91;50.28;;
37279;Laerm;7458;49.002;8.472;2023-07-29T00:21:34;43.21;36.20;51.33;;
37279;Laerm;7458;49.002;8.472;2023-07-29T00:24:00;42.97;35.66;50.34;;
37279;Laerm;7458;49.002;8.472;2023-07-29T00:26:27;43.31;37.32;50.12;;
37279;Laerm;7458;49.002;8.472;2023-07-29T00:28:56;42.96;37.32;50.04;;
37279;Laerm;7458;49.002;8.472;2023-07-29T00:31:22;44.43;37.88;56.71;;
37279;Laerm;7458;49.002;8.472;2023-07-29T00:33:47;45.70;37.32;60.82;;
37279;Laerm;7458;49.002;8.472;2023-07-29T00:36:13;43.75;37.32;50.05;;
37279;Laerm;7458;49.002;8.472;2023-07-29T00:38:39;43.48;38.37;50.69;;
37279;Laerm;7458;49.002;8.472;2023-07-29T00:41:05;43.84;38.05;50.36;;
37279;Laerm;7458;49.002;8.472;2023-07-29T00:43:31;44.00;38.18;51.10;;
37279;Laerm;7458;49.002;8.472;2023-07-29T00:45:57;51.46;38.67;75.09;;
37279;Laerm;7458;49.002;8.472;2023-07-29T00:48:24;43.96;38.52;57.44;;
37279;Laerm;7458;49.002;8.472;2023-07-29T00:50:51;43.45;38.37;50.15;;
37279;Laerm;7458;49.002;8.472;2023-07-29T00:53:20;43.95;37.88;53.36;;
37279;Laerm;7458;49.002;8.472;2023-07-29T00:55:45;50.74;36.20;70.79;;
37279;Laerm;7458;49.002;8.472;2023-07-29T00:58:12;43.17;37.70;49.91;;
37279;Laerm;7458;49.002;8.472;2023-07-29T01:00:38;43.80;37.88;54.13;;
37279;Laerm;7458;49.002;8.472;2023-07-29T01:03:04;43.47;36.20;49.98;;
37279;Laerm;7458;49.002;8.472;2023-07-29T01:05:47;43.41;36.91;49.85;;
37279;Laerm;7458;49.002;8.472;2023-07-29T01:08:36;42.82;35.94;50.24;;
37279;Laerm;7458;49.002;8.472;2023-07-29T01:11:38;43.14;38.21;50.10;;
37279;Laerm;7458;49.002;8.472;2023-07-29T01:17:30;54.43;36.69;75.75;;
37279;Laerm;7458;49.002;8.472;2023-07-29T01:20:08;43.00;35.94;50.40;;
37279;Laerm;7458;49.002;8.472;2023-07-29T01:22:36;43.87;37.88;55.64;;
37279;Laerm;7458;49.002;8.472;2023-07-29T01:25:11;55.51;38.52;76.59;;
37279;Laerm;7458;49.002;8.472;2023-07-29T01:27:37;52.26;38.21;71.55;;
37279;Laerm;7458;49.002;8.472;2023-07-29T01:30:03;43.45;38.05;50.38;;
37279;Laerm;7458;49.002;8.472;2023-07-29T01:35:24;44.04;38.21;50.38;;
37279;Laerm;7458;49.002;8.472;2023-07-29T01:38:03;52.00;35.66;72.50;;
37279;Laerm;7458;49.002;8.472;2023-07-29T01:40:30;43.89;35.94;55.23;;
37279;Laerm;7458;49.002;8.472;2023-07-29T01:42:56;43.44;37.70;50.42;;
37279;Laerm;7458;49.002;8.472;2023-07-29T01:45:25;43.46;37.12;50.68;;
37279;Laerm;7458;49.002;8.472;2023-07-29T01:47:52;43.27;35.94;50.23;;
37279;Laerm;7458;49.002;8.472;2023-07-29T01:50:18;43.36;36.20;51.33;;
37279;Laerm;7458;49.002;8.472;2023-07-29T01:52:43;43.65;37.70;50.49;;
37279;Laerm;7458;49.002;8.472;2023-07-29T01:55:09;43.64;38.05;51.05;;
37279;Laerm;7458;49.002;8.472;2023-07-29T01:57:35;43.87;37.12;50.67;;
37279;Laerm;7458;49.002;8.472;2023-07-29T02:00:01;47.31;38.21;61.51;;
37279;Laerm;7458;49.002;8.472;2023-07-29T02:02:27;43.78;37.88;54.42;;
37279;Laerm;7458;49.002;8.472;2023-07-29T02:04:53;43.87;36.91;51.28;;
37279;Laerm;7458;49.002;8.472;2023-07-29T02:07:21;43.86;38.52;50.67;;
37279;Laerm;7458;49.002;8.472;2023-07-29T02:09:47;43.52;38.37;50.65;;
37279;Laerm;7458;49.002;8.472;2023-07-29T02:12:13;43.66;38.05;50.60;;
37279;Laerm;7458;49.002;8.472;2023-07-29T02:14:39;50.89;39.21;69.74;;
37279;Laerm;7458;49.002;8.472;2023-07-29T02:17:04;46.41;39.58;58.35;;
37279;Laerm;7458;49.002;8.472;2023-07-29T02:19:30;44.14;39.21;50.56;;
37279;Laerm;7458;49.002;8.472;2023-07-29T02:21:56;45.35;39.08;53.67;;
37279;Laerm;7458;49.002;8.472;2023-07-29T02:24:21;44.70;40.33;51.92;;
37279;Laerm;7458;49.002;8.472;2023-07-29T02:26:47;44.96;39.81;59.33;;
37279;Laerm;7458;49.002;8.472;2023-07-29T02:29:13;46.84;39.46;63.86;;
37279;Laerm;7458;49.002;8.472;2023-07-29T02:31:39;44.36;40.13;50.41;;
37279;Laerm;7458;49.002;8.472;2023-07-29T02:34:05;44.67;40.53;50.77;;
37279;Laerm;7458;49.002;8.472;2023-07-29T02:36:31;44.71;40.43;50.83;;
37279;Laerm;7458;49.002;8.472;2023-07-29T02:38:57;44.47;39.81;50.68;;
37279;Laerm;7458;49.002;8.472;2023-07-29T02:41:23;44.46;40.13;50.76;;
37279;Laerm;7458;49.002;8.472;2023-07-29T02:43:50;44.56;40.23;53.26;;
37279;Laerm;7458;49.002;8.472;2023-07-29T02:46:16;45.30;40.62;50.92;;
37279;Laerm;7458;49.002;8.472;2023-07-29T02:48:43;46.91;40.33;57.73;;
37279;Laerm;7458;49.002;8.472;2023-07-29T02:51:09;45.03;41.22;53.40;;
37279;Laerm;7458;49.002;8.472;2023-07-29T02:53:35;44.88;40.80;50.66;;
37279;Laerm;7458;49.002;8.472;2023-07-29T02:56:04;45.67;41.53;51.49;;
37279;Laerm;7458;49.002;8.472;2023-07-29T02:58:32;51.87;42.41;70.44;;
37279;Laerm;7458;49.002;8.472;2023-07-29T03:01:03;45.72;42.59;51.41;;
37279;Laerm;7458;49.002;8.472;2023-07-29T03:03:30;53.49;42.35;73.77;;
37279;Laerm;7458;49.002;8.472;2023-07-29T03:06:05;45.68;41.53;52.54;;
37279;Laerm;7458;49.002;8.472;2023-07-29T03:08:31;45.20;41.53;51.80;;
37279;Laerm;7458;49.002;8.472;2023-07-29T03:10:58;45.37;41.53;51.88;;
37279;Laerm;7458;49.002;8.472;2023-07-29T03:13:24;45.09;40.98;51.44;;
37279;Laerm;7458;49.002;8.472;2023-07-29T03:15:51;45.11;40.43;63.51;;
37279;Laerm;7458;49.002;8.472;2023-07-29T03:18:17;45.05;40.63;56.93;;
37279;Laerm;7458;49.002;8.472;2023-07-29T03:20:42;51.05;41.46;70.11;;
37279;Laerm;7458;49.002;8.472;2023-07-29T03:23:08;45.07;40.53;51.34;;
37279;Laerm;7458;49.002;8.472;2023-07-29T03:25:34;54.45;40.13;75.35;;
37279;Laerm;7458;49.002;8.472;2023-07-29T03:28:00;51.19;40.89;69.57;;
37279;Laerm;7458;49.002;8.472;2023-07-29T03:30:26;49.53;40.33;67.34;;
37279;Laerm;7458;49.002;8.472;2023-07-29T03:32:52;45.02;40.13;53.37;;
37279;Laerm;7458;49.002;8.472;2023-07-29T03:35:18;44.98;39.81;53.04;;
37279;Laerm;7458;49.002;8.472;2023-07-29T03:37:45;44.65;38.81;51.06;;
37279;Laerm;7458;49.002;8.472;2023-07-29T03:40:11;44.90;40.62;51.68;;
37279;Laerm;7458;49.002;8.472;2023-07-29T03:42:37;52.61;40.53;65.13;;
37279;Laerm;7458;49.002;8.472;2023-07-29T03:45:03;44.82;40.23;55.37;;
37279;Laerm;7458;49.002;8.472;2023-07-29T03:47:29;44.97;40.23;52.05;;
37279;Laerm;7458;49.002;8.472;2023-07-29T03:49:54;44.85;41.06;52.04;;
37279;Laerm;7458;49.002;8.472;2023-07-29T03:52:20;45.02;41.46;51.30;;
37279;Laerm;7458;49.002;8.472;2023-07-29T03:54:46;45.45;40.80;53.28;;
37279;Laerm;7458;49.002;8.472;2023-07-29T03:57:11;50.60;41.22;74.14;;
37279;Laerm;7458;49.002;8.472;2023-07-29T03:59:37;47.78;41.53;67.05;;
37279;Laerm;7458;49.002;8.472;2023-07-29T04:02:03;48.91;41.75;75.24;;
37279;Laerm;7458;49.002;8.472;2023-07-29T04:04:29;54.38;44.12;86.54;;
37279;Laerm;7458;49.002;8.472;2023-07-29T04:06:55;52.29;43.94;76.14;;
37279;Laerm;7458;49.002;8.472;2023-07-29T04:09:21;46.61;41.53;67.49;;
37279;Laerm;7458;49.002;8.472;2023-07-29T04:11:47;46.97;41.06;72.47;;
37279;Laerm;7458;49.002;8.472;2023-07-29T04:14:13;50.33;40.98;70.22;;
37279;Laerm;7458;49.002;8.472;2023-07-29T04:16:39;52.92;41.46;77.92;;
37279;Laerm;7458;49.002;8.472;2023-07-29T04:19:05;46.48;42.53;59.64;;
37279;Laerm;7458;49.002;8.472;2023-07-29T04:21:30;51.42;43.63;66.04;;
37279;Laerm;7458;49.002;8.472;2023-07-29T04:23:56;49.93;43.54;73.77;;
37279;Laerm;7458;49.002;8.472;2023-07-29T04:26:23;72.06;42.35;97.52;;
37279;Laerm;7458;49.002;8.472;2023-07-29T04:28:48;90.07;42.59;100.75;;
37279;Laerm;7458;49.002;8.472;2023-07-29T04:31:14;89.68;41.30;101.27;;
37279;Laerm;7458;49.002;8.472;2023-07-29T04:33:41;94.55;49.93;101.20;;
37279;Laerm;7458;49.002;8.472;2023-07-29T04:36:07;94.94;48.48;100.64;;
37279;Laerm;7458;49.002;8.472;2023-07-29T04:38:33;94.78;73.90;100.25;;
37279;Laerm;7458;49.002;8.472;2023-07-29T04:40:59;94.41;78.61;100.25;;
37279;Laerm;7458;49.002;8.472;2023-07-29T04:43:30;94.34;71.19;101.22;;
37279;Laerm;7458;49.002;8.472;2023-07-29T04:45:56;94.42;50.57;100.37;;
37279;Laerm;7458;49.002;8.472;2023-07-29T04:48:23;95.09;68.29;101.01;;
37279;Laerm;7458;49.002;8.472;2023-07-29T04:50:48;94.41;55.57;100.72;;
37279;Laerm;7458;49.002;8.472;2023-07-29T04:53:14;95.63;52.78;100.87;;
37279;Laerm;7458;49.002;8.472;2023-07-29T04:55:43;96.35;44.23;101.15;;
37279;Laerm;7458;49.002;8.472;2023-07-29T04:58:10;95.47;52.70;101.51;;
37279;Laerm;7458;49.002;8.472;2023-07-29T05:00:35;95.22;78.79;100.85;;
37279;Laerm;7458;49.002;8.472;2023-07-29T05:03:01;94.90;45.27;101.12;;
37279;Laerm;7458;49.002;8.472;2023-07-29T05:05:27;94.19;41.38;101.57;;
37279;Laerm;7458;49.002;8.472;2023-07-29T05:07:54;89.25;40.71;100.78;;
37279;Laerm;7458;49.002;8.472;2023-07-29T05:10:19;94.20;40.53;101.19;;
37279;Laerm;7458;49.002;8.472;2023-07-29T05:12:46;94.65;50.29;100.72;;
37279;Laerm;7458;49.002;8.472;2023-07-29T05:15:12;94.76;51.44;100.08;;
37279;Laerm;7458;49.002;8.472;2023-07-29T05:17:37;95.51;45.39;101.12;;
37279;Laerm;7458;49.002;8.472;2023-07-29T05:20:04;94.56;68.17;100.91;;
37279;Laerm;7458;49.002;8.472;2023-07-29T05:22:30;95.22;44.15;101.06;;
37279;Laerm;7458;49.002;8.472;2023-07-29T05:24:56;95.13;41.30;101.28;;
37279;Laerm;7458;49.002;8.472;2023-07-29T05:27:22;83.86;40.89;100.02;;
37279;Laerm;7458;49.002;8.472;2023-07-29T05:29:48;74.34;41.06;92.53;;
37279;Laerm;7458;49.002;8.472;2023-07-29T05:32:14;67.85;40.98;92.85;;
37279;Laerm;7458;49.002;8.472;2023-07-29T05:34:40;59.81;41.46;82.86;;
37279;Laerm;7458;49.002;8.472;2023-07-29T05:37:06;53.05;40.89;77.66;;
37279;Laerm;7458;49.002;8.472;2023-07-29T05:39:32;53.46;41.38;75.57;;
37279;Laerm;7458;49.002;8.472;2023-07-29T05:41:59;59.18;41.22;86.97;;
37279;Laerm;7458;49.002;8.472;2023-07-29T05:44:24;59.12;40.71;90.22;;
37279;Laerm;7458;49.002;8.472;2023-07-29T05:46:50;52.92;41.46;79.87;;
37279;Laerm;7458;49.002;8.472;2023-07-29T05:49:16;50.11;41.61;68.17;;
37279;Laerm;7458;49.002;8.472;2023-07-29T05:51:42;52.48;41.68;75.43;;
37279;Laerm;7458;49.002;8.472;2023-07-29T05:54:09;64.15;40.89;94.90;;
37279;Laerm;7458;49.002;8.472;2023-07-29T05:56:35;52.75;40.89;73.46;;
37279;Laerm;7458;49.002;8.472;2023-07-29T05:59:00;49.08;41.14;75.78;;
37279;Laerm;7458;49.002;8.472;2023-07-29T06:01:26;48.76;41.53;70.43;;
37279;Laerm;7458;49.002;8.472;2023-07-29T06:03:52;49.99;42.53;66.46;;
37279;Laerm;7458;49.002;8.472;2023-07-29T06:06:18;54.99;42.41;76.37;;
37279;Laerm;7458;49.002;8.472;2023-07-29T06:08:44;52.04;42.76;69.16;;
37279;Laerm;7458;49.002;8.472;2023-07-29T06:11:10;55.91;42.53;70.98;;
37279;Laerm;7458;49.002;8.472;2023-07-29T06:13:36;46.32;42.22;62.87;;
37279;Laerm;7458;49.002;8.472;2023-07-29T06:16:01;56.28;42.65;72.69;;
37279;Laerm;7458;49.002;8.472;2023-07-29T06:18:27;53.36;42.41;69.72;;
37279;Laerm;7458;49.002;8.472;2023-07-29T06:20:53;62.38;41.61;79.76;;
37279;Laerm;7458;49.002;8.472;2023-07-29T06:23:19;54.92;41.53;71.90;;
37279;Laerm;7458;49.002;8.472;2023-07-29T06:25:45;54.91;41.61;69.59;;
37279;Laerm;7458;49.002;8.472;2023-07-29T06:28:10;65.13;44.87;91.59;;
37279;Laerm;7458;49.002;8.472;2023-07-29T06:30:36;70.60;43.19;91.71;;
37279;Laerm;7458;49.002;8.472;2023-07-29T06:33:02;85.47;42.22;101.09;;
37279;Laerm;7458;49.002;8.472;2023-07-29T06:35:28;71.22;41.68;93.93;;
37279;Laerm;7458;49.002;8.472;2023-07-29T06:37:54;52.52;41.38;71.14;;
37279;Laerm;7458;49.002;8.472;2023-07-29T06:40:20;57.08;41.22;74.47;;
37279;Laerm;7458;49.002;8.472;2023-07-29T06:42:46;45.83;40.89;58.40;;
37279;Laerm;7458;49.002;8.472;2023-07-29T06:45:12;55.00;41.68;71.52;;
37279;Laerm;7458;49.002;8.472;2023-07-29T06:47:38;54.52;41.89;73.94;;
37279;Laerm;7458;49.002;8.472;2023-07-29T06:50:04;55.24;42.22;75.23;;
37279;Laerm;7458;49.002;8.472;2023-07-29T06:52:30;53.19;42.41;67.35;;
37279;Laerm;7458;49.002;8.472;2023-07-29T06:54:56;57.51;42.47;72.60;;
37279;Laerm;7458;49.002;8.472;2023-07-29T06:57:22;58.22;42.65;73.85;;
37279;Laerm;7458;49.002;8.472;2023-07-29T06:59:48;53.03;42.29;70.41;;
37279;Laerm;7458;49.002;8.472;2023-07-29T07:02:15;47.80;42.93;61.44;;
37279;Laerm;7458;49.002;8.472;2023-07-29T07:04:41;57.71;42.16;77.45;;
37279;Laerm;7458;49.002;8.472;2023-07-29T07:07:07;51.94;42.09;73.09;;
37279;Laerm;7458;49.002;8.472;2023-07-29T07:09:32;55.79;42.00;71.42;;
37279;Laerm;7458;49.002;8.472;2023-07-29T07:11:58;55.94;42.16;72.85;;
37279;Laerm;7458;49.002;8.472;2023-07-29T07:14:24;56.63;42.16;74.22;;
37279;Laerm;7458;49.002;8.472;2023-07-29T07:16:53;48.70;41.14;70.31;;
37279;Laerm;7458;49.002;8.472;2023-07-29T07:19:18;55.91;42.47;72.28;;
37279;Laerm;7458;49.002;8.472;2023-07-29T07:21:45;54.84;41.53;74.35;;
37279;Laerm;7458;49.002;8.472;2023-07-29T07:24:11;57.14;42.59;71.19;;
37279;Laerm;7458;49.002;8.472;2023-07-29T07:26:37;58.23;42.47;76.36;;
37279;Laerm;7458;49.002;8.472;2023-07-29T07:29:02;46.15;41.75;59.84;;
37279;Laerm;7458;49.002;8.472;2023-07-29T07:31:28;50.69;42.09;73.59;;
37279;Laerm;7458;49.002;8.472;2023-07-29T07:33:54;52.15;41.68;65.73;;
37279;Laerm;7458;49.002;8.472;2023-07-29T07:36:19;51.66;42.35;67.52;;
37279;Laerm;7458;49.002;8.472;2023-07-29T07:38:46;54.28;42.22;74.21;;
37279;Laerm;7458;49.002;8.472;2023-07-29T07:41:12;57.14;41.82;71.74;;
37279;Laerm;7458;49.002;8.472;2023-07-29T07:43:37;55.02;41.46;73.21;;
37279;Laerm;7458;49.002;8.472;2023-07-29T07:46:04;54.33;42.29;73.41;;
37279;Laerm;7458;49.002;8.472;2023-07-29T07:48:37;53.24;41.82;68.75;;
37279;Laerm;7458;49.002;8.472;2023-07-29T07:51:11;55.57;41.75;72.99;;
37279;Laerm;7458;49.002;8.472;2023-07-29T07:53:38;54.47;41.68;69.32;;
37279;Laerm;7458;49.002;8.472;2023-07-29T07:56:03;54.07;41.38;70.88;;
37279;Laerm;7458;49.002;8.472;2023-07-29T07:58:33;57.26;41.22;78.04;;
37279;Laerm;7458;49.002;8.472;2023-07-29T08:01:07;51.47;41.82;79.59;;
37279;Laerm;7458;49.002;8.472;2023-07-29T08:03:34;50.60;41.82;68.39;;
37279;Laerm;7458;49.002;8.472;2023-07-29T08:06:00;60.63;42.71;82.48;;
37279;Laerm;7458;49.002;8.472;2023-07-29T08:08:27;47.27;41.82;64.23;;
37279;Laerm;7458;49.002;8.472;2023-07-29T08:10:54;52.87;42.47;71.09;;
37279;Laerm;7458;49.002;8.472;2023-07-29T08:13:21;56.39;42.09;69.89;;
37279;Laerm;7458;49.002;8.472;2023-07-29T08:15:49;53.44;42.47;72.09;;
37279;Laerm;7458;49.002;8.472;2023-07-29T08:18:15;53.48;42.53;70.33;;
37279;Laerm;7458;49.002;8.472;2023-07-29T08:20:54;53.92;42.65;69.19;;
37279;Laerm;7458;49.002;8.472;2023-07-29T08:23:21;53.18;43.09;69.77;;
37279;Laerm;7458;49.002;8.472;2023-07-29T08:25:56;50.96;42.88;70.25;;
37279;Laerm;7458;49.002;8.472;2023-07-29T08:28:30;50.49;41.96;72.78;;
37279;Laerm;7458;49.002;8.472;2023-07-29T08:30:56;57.62;42.53;72.16;;
37279;Laerm;7458;49.002;8.472;2023-07-29T08:33:22;61.87;45.36;79.92;;
37279;Laerm;7458;49.002;8.472;2023-07-29T08:35:48;56.36;44.15;74.20;;
37279;Laerm;7458;49.002;8.472;2023-07-29T08:38:14;61.92;43.86;77.70;;
37279;Laerm;7458;49.002;8.472;2023-07-29T08:43:34;54.90;43.19;71.44;;
37279;Laerm;7458;49.002;8.472;2023-07-29T08:46:00;56.91;43.86;75.71;;
37279;Laerm;7458;49.002;8.472;2023-07-29T08:48:37;55.06;42.88;67.82;;
37279;Laerm;7458;49.002;8.472;2023-07-29T08:51:07;58.02;42.35;75.54;;
37279;Laerm;7458;49.002;8.472;2023-07-29T08:53:35;63.36;44.39;94.25;;
37279;Laerm;7458;49.002;8.472;2023-07-29T08:56:01;62.23;44.31;81.87;;
37279;Laerm;7458;49.002;8.472;2023-07-29T08:58:28;54.88;43.29;71.84;;
37279;Laerm;7458;49.002;8.472;2023-07-29T09:00:54;53.62;43.77;71.47;;
37279;Laerm;7458;49.002;8.472;2023-07-29T09:03:21;62.38;44.43;82.74;;
37279;Laerm;7458;49.002;8.472;2023-07-29T09:05:47;56.74;43.99;75.65;;
37279;Laerm;7458;49.002;8.472;2023-07-29T09:08:14;60.29;44.97;80.18;;
37279;Laerm;7458;49.002;8.472;2023-07-29T09:10:40;58.63;42.59;75.25;;
37279;Laerm;7458;49.002;8.472;2023-07-29T09:13:07;55.70;42.76;73.39;;
37279;Laerm;7458;49.002;8.472;2023-07-29T09:15:36;59.86;42.65;80.93;;
37279;Laerm;7458;49.002;8.472;2023-07-29T09:18:16;55.97;42.16;73.39;;
37279;Laerm;7458;49.002;8.472;2023-07-29T09:20:42;48.36;42.76;68.82;;
37279;Laerm;7458;49.002;8.472;2023-07-29T09:23:10;57.95;42.35;73.06;;
37279;Laerm;7458;49.002;8.472;2023-07-29T09:25:37;53.03;42.41;68.07;;
37279;Laerm;7458;49.002;8.472;2023-07-29T09:28:12;56.47;42.03;84.40;;
37279;Laerm;7458;49.002;8.472;2023-07-29T09:30:41;55.42;41.46;73.38;;
37279;Laerm;7458;49.002;8.472;2023-07-29T09:33:09;58.35;42.82;72.33;;
37279;Laerm;7458;49.002;8.472;2023-07-29T09:35:36;55.05;41.38;76.12;;
37279;Laerm;7458;49.002;8.472;2023-07-29T09:38:06;55.63;40.98;82.08;;
37279;Laerm;7458;49.002;8.472;2023-07-29T09:40:37;52.23;40.23;68.13;;
37279;Laerm;7458;49.002;8.472;2023-07-29T09:43:05;59.96;41.68;78.89;;
37279;Laerm;7458;49.002;8.472;2023-07-29T09:45:35;55.69;42.29;74.35;;
37279;Laerm;7458;49.002;8.472;2023-07-29T09:48:03;52.29;40.71;69.33;;
37279;Laerm;7458;49.002;8.472;2023-07-29T09:50:30;55.15;42.82;71.75;;
37279;Laerm;7458;49.002;8.472;2023-07-29T09:52:57;58.70;41.75;79.31;;
37279;Laerm;7458;49.002;8.472;2023-07-29T09:55:26;51.01;41.14;69.31;;
37279;Laerm;7458;49.002;8.472;2023-07-29T09:58:01;53.80;40.03;71.13;;
37279;Laerm;7458;49.002;8.472;2023-07-29T10:00:30;60.10;41.68;75.85;;
37279;Laerm;7458;49.002;8.472;2023-07-29T10:02:58;54.09;41.75;69.47;;
37279;Laerm;7458;49.002;8.472;2023-07-29T10:05:29;51.66;40.71;70.55;;
37279;Laerm;7458;49.002;8.472;2023-07-29T10:07:56;52.34;40.89;70.88;;
37279;Laerm;7458;49.002;8.472;2023-07-29T10:10:23;55.33;42.35;70.31;;
37279;Laerm;7458;49.002;8.472;2023-07-29T10:12:50;52.05;42.29;67.68;;
37279;Laerm;7458;49.002;8.472;2023-07-29T10:15:15;56.79;40.71;75.23;;
37279;Laerm;7458;49.002;8.472;2023-07-29T10:17:42;53.64;42.22;74.23;;
37279;Laerm;7458;49.002;8.472;2023-07-29T10:20:11;54.96;42.03;73.13;;
37279;Laerm;7458;49.002;8.472;2023-07-29T10:22:43;81.10;43.55;99.73;;
37279;Laerm;7458;49.002;8.472;2023-07-29T10:25:18;55.88;41.30;70.28;;
37279;Laerm;7458;49.002;8.472;2023-07-29T10:28:07;51.05;41.75;70.95;;
37279;Laerm;7458;49.002;8.472;2023-07-29T10:30:34;56.11;41.75;72.04;;
37279;Laerm;7458;49.002;8.472;2023-07-29T10:33:03;57.26;41.82;76.07;;
37279;Laerm;7458;49.002;8.472;2023-07-29T10:35:32;46.75;41.22;58.88;;
37279;Laerm;7458;49.002;8.472;2023-07-29T10:38:00;52.34;40.62;69.36;;
37279;Laerm;7458;49.002;8.472;2023-07-29T10:40:48;55.28;41.30;71.99;;
37279;Laerm;7458;49.002;8.472;2023-07-29T10:43:33;52.15;40.62;70.36;;
37279;Laerm;7458;49.002;8.472;2023-07-29T10:46:17;54.12;41.22;78.23;;
37279;Laerm;7458;49.002;8.472;2023-07-29T10:51:37;56.09;41.30;75.77;;
37279;Laerm;7458;49.002;8.472;2023-07-29T10:54:04;51.79;40.88;68.93;;
37279;Laerm;7458;49.002;8.472;2023-07-29T10:56:40;51.94;40.98;72.87;;
37279;Laerm;7458;49.002;8.472;2023-07-29T11:01:43;54.24;40.98;72.09;;
37279;Laerm;7458;49.002;8.472;2023-07-29T11:17:44;49.26;41.96;64.46;;
37279;Laerm;7458;49.002;8.472;2023-07-29T11:20:11;54.76;42.59;76.55;;
37279;Laerm;7458;49.002;8.472;2023-07-29T11:22:38;57.13;43.09;76.16;;
37279;Laerm;7458;49.002;8.472;2023-07-29T11:25:07;54.99;42.35;70.20;;
37279;Laerm;7458;49.002;8.472;2023-07-29T11:27:33;52.77;42.22;69.89;;
37279;Laerm;7458;49.002;8.472;2023-07-29T11:30:01;55.18;41.96;73.63;;
37279;Laerm;7458;49.002;8.472;2023-07-29T11:32:28;54.04;42.29;69.74;;
37279;Laerm;7458;49.002;8.472;2023-07-29T11:34:53;47.85;43.09;62.82;;
37279;Laerm;7458;49.002;8.472;2023-07-29T11:37:19;50.19;43.34;67.78;;
37279;Laerm;7458;49.002;8.472;2023-07-29T11:39:47;55.38;43.44;73.92;;
37279;Laerm;7458;49.002;8.472;2023-07-29T11:42:14;55.91;43.72;71.02;;
37279;Laerm;7458;49.002;8.472;2023-07-29T11:44:41;58.52;43.46;74.52;;
37279;Laerm;7458;49.002;8.472;2023-07-29T11:47:10;53.71;41.53;71.53;;
37279;Laerm;7458;49.002;8.472;2023-07-29T11:49:39;56.73;43.24;80.19;;
37279;Laerm;7458;49.002;8.472;2023-07-29T11:52:10;54.96;43.99;71.49;;
37279;Laerm;7458;49.002;8.472;2023-07-29T11:54:38;56.45;43.99;69.91;;
37279;Laerm;7458;49.002;8.472;2023-07-29T11:57:08;57.97;43.14;73.58;;
37279;Laerm;7458;49.002;8.472;2023-07-29T11:59:37;57.60;43.94;81.06;;
37279;Laerm;7458;49.002;8.472;2023-07-29T12:02:12;57.66;44.23;76.57;;
37279;Laerm;7458;49.002;8.472;2023-07-29T12:04:39;55.17;43.72;70.55;;
37279;Laerm;7458;49.002;8.472;2023-07-29T12:07:06;55.76;42.98;73.61;;
37279;Laerm;7458;49.002;8.472;2023-07-29T12:09:35;57.30;44.51;75.30;;
37279;Laerm;7458;49.002;8.472;2023-07-29T12:12:06;52.33;43.24;71.00;;
37279;Laerm;7458;49.002;8.472;2023-07-29T12:14:34;53.45;44.76;76.82;;
37279;Laerm;7458;49.002;8.472;2023-07-29T12:17:01;57.48;43.49;73.19;;
37279;Laerm;7458;49.002;8.472;2023-07-29T12:19:39;53.76;43.94;69.24;;
37279;Laerm;7458;49.002;8.472;2023-07-29T12:22:08;50.96;43.77;64.09;;
37279;Laerm;7458;49.002;8.472;2023-07-29T12:24:40;53.77;43.77;79.68;;
37279;Laerm;7458;49.002;8.472;2023-07-29T12:27:12;58.06;43.81;73.15;;
37279;Laerm;7458;49.002;8.472;2023-07-29T12:29:44;56.72;43.94;73.89;;
37279;Laerm;7458;49.002;8.472;2023-07-29T12:32:12;55.72;43.39;72.26;;
37279;Laerm;7458;49.002;8.472;2023-07-29T12:34:39;52.87;42.71;68.99;;
37279;Laerm;7458;49.002;8.472;2023-07-29T12:37:06;65.71;44.19;81.98;;
37279;Laerm;7458;49.002;8.472;2023-07-29T12:39:35;55.00;44.58;72.43;;
37279;Laerm;7458;49.002;8.472;2023-07-29T12:42:03;49.94;43.94;66.96;;
37279;Laerm;7458;49.002;8.472;2023-07-29T12:44:35;54.73;43.86;69.50;;
37279;Laerm;7458;49.002;8.472;2023-07-29T12:47:03;58.64;44.11;71.98;;
37279;Laerm;7458;49.002;8.472;2023-07-29T12:49:31;54.78;43.58;72.81;;
37279;Laerm;7458;49.002;8.472;2023-07-29T12:51:58;51.63;42.98;66.17;;
37279;Laerm;7458;49.002;8.472;2023-07-29T12:54:24;59.11;43.34;77.11;;
37279;Laerm;7458;49.002;8.472;2023-07-29T12:56:50;55.96;44.34;71.36;;
37279;Laerm;7458;49.002;8.472;2023-07-29T12:59:16;54.29;44.23;70.88;;
37279;Laerm;7458;49.002;8.472;2023-07-29T13:01:42;53.79;42.65;70.58;;
37279;Laerm;7458;49.002;8.472;2023-07-29T13:04:10;53.24;42.47;76.05;;
37279;Laerm;7458;49.002;8.472;2023-07-29T13:06:36;54.32;42.53;78.63;;
37279;Laerm;7458;49.002;8.472;2023-07-29T13:09:02;54.26;42.88;70.58;;
37279;Laerm;7458;49.002;8.472;2023-07-29T13:11:29;53.36;43.37;70.22;;
37279;Laerm;7458;49.002;8.472;2023-07-29T13:13:55;54.65;41.68;76.47;;
37279;Laerm;7458;49.002;8.472;2023-07-29T13:16:20;54.87;42.41;71.93;;
37279;Laerm;7458;49.002;8.472;2023-07-29T13:18:46;50.93;42.47;63.97;;
37279;Laerm;7458;49.002;8.472;2023-07-29T13:21:12;65.50;42.71;87.21;;
37279;Laerm;7458;49.002;8.472;2023-07-29T13:23:38;53.34;42.98;72.51;;
37279;Laerm;7458;49.002;8.472;2023-07-29T13:26:04;50.51;43.58;60.27;;
37279;Laerm;7458;49.002;8.472;2023-07-29T13:28:30;54.30;42.41;71.79;;
37279;Laerm;7458;49.002;8.472;2023-07-29T13:30:56;58.45;43.09;73.70;;
37279;Laerm;7458;49.002;8.472;2023-07-29T13:33:21;58.84;42.16;86.72;;
37279;Laerm;7458;49.002;8.472;2023-07-29T13:35:47;57.43;42.35;75.52;;
37279;Laerm;7458;49.002;8.472;2023-07-29T13:38:13;47.72;42.65;60.85;;
37279;Laerm;7458;49.002;8.472;2023-07-29T13:40:38;54.67;42.64;75.67;;
37279;Laerm;7458;49.002;8.472;2023-07-29T13:43:04;46.96;42.53;61.07;;
37279;Laerm;7458;49.002;8.472;2023-07-29T13:45:30;56.90;42.53;76.02;;
37279;Laerm;7458;49.002;8.472;2023-07-29T13:47:56;57.68;42.29;77.82;;
37279;Laerm;7458;49.002;8.472;2023-07-29T13:50:22;50.38;42.76;73.05;;
37279;Laerm;7458;49.002;8.472;2023-07-29T13:52:48;52.00;41.82;66.76;;
37279;Laerm;7458;49.002;8.472;2023-07-29T13:55:14;55.61;42.16;75.13;;
37279;Laerm;7458;49.002;8.472;2023-07-29T13:57:40;47.38;43.04;58.58;;
37279;Laerm;7458;49.002;8.472;2023-07-29T14:00:07;48.89;42.88;61.39;;
37279;Laerm;7458;49.002;8.472;2023-07-29T14:02:33;55.67;44.07;79.63;;
37279;Laerm;7458;49.002;8.472;2023-07-29T14:05:00;68.57;43.77;86.70;;
37279;Laerm;7458;49.002;8.472;2023-07-29T14:07:25;53.27;43.04;70.49;;
37279;Laerm;7458;49.002;8.472;2023-07-29T14:09:51;55.42;43.86;70.00;;
37279;Laerm;7458;49.002;8.472;2023-07-29T14:12:21;53.94;43.34;75.04;;
37279;Laerm;7458;49.002;8.472;2023-07-29T14:14:47;47.59;43.46;55.69;;
37279;Laerm;7458;49.002;8.472;2023-07-29T14:17:12;50.32;42.41;65.13;;
37279;Laerm;7458;49.002;8.472;2023-07-29T14:19:38;59.78;43.49;80.28;;
37279;Laerm;7458;49.002;8.472;2023-07-29T14:22:04;53.40;41.89;72.31;;
37279;Laerm;7458;49.002;8.472;2023-07-29T14:24:30;59.66;43.58;78.71;;